Weather at Sant Lluis Airfield

Public forecast

Using degrees Celsius for public forecast. Weather courtesy of forecast.io.

Closest aviation weather report (METAR) to Sant Lluis Airfield

Closest report is Menorca Airport, 1.5 nm (2.8 km) W.

2024/07/16 03:30 (retrieved 34 minutes ago)

LEMH 160330Z AUTO 02003KT 9999 FEW008/// 22/22 Q1014

Closest aviation forecast (TAF) to Sant Lluis Airfield

Forecast is more than 12 hours old.

Closest forecast is Salon-de-Provence (BA 701) Air Base, 228.1 nm (422.4 km) N.

2024/07/15 15:18 (retrieved 13 hours ago)

TAF LFMY 151512Z 1515/1615 CNL